Time;durP1;ratioP1;P1;durP2;ratioP2;P2;SDS_P1;SDS_P2;PMS_P1;PMS_P2;Temp;Humidity;BMP_temperature;BMP_pressure;BME280_temperature;BME280_humidity;BME280_pressure;Samples;Min_cycle;Max_cycle;Signal;HPM_P1;HPM_P2
2023/09/01 00:02:15;;;;;;;;;0.67;0.67;;;;;18.69;100.00;101106.69;5136476;27;46693;-76
2023/09/01 00:04:41;;;;;;;;;1.33;1.33;;;;;18.48;100.00;101070.81;5126599;27;45419;-76
2023/09/01 00:07:06;;;;;;;;;1.00;1.00;;;;;18.69;100.00;101098.66;5125361;27;44751;-78
2023/09/01 00:09:31;;;;;;;;;1.00;1.00;;;;;18.70;100.00;101105.72;5130547;27;45432;-77
2023/09/01 00:11:57;;;;;;;;;1.33;1.33;;;;;18.64;100.00;101099.03;5124667;27;47768;-77
2023/09/01 00:14:22;;;;;;;;;1.00;1.00;;;;;18.63;100.00;101096.44;5137232;27;54854;-76
2023/09/01 00:16:47;;;;;;;;;1.00;1.00;;;;;18.69;100.00;101106.69;5142107;27;45661;-77
2023/09/01 00:19:13;;;;;;;;;1.00;1.00;;;;;18.54;100.00;101076.56;5124916;27;45344;-76
2023/09/01 00:21:39;;;;;;;;;1.33;1.33;;;;;18.68;100.00;101105.84;5125128;27;48062;-76
2023/09/01 00:24:05;;;;;;;;;2.00;2.00;;;;;18.53;100.00;101077.53;5139593;27;44650;-77
2023/09/01 00:26:30;;;;;;;;;1.67;1.00;;;;;18.69;100.00;101098.66;5144193;27;44793;-77
2023/09/01 00:28:56;;;;;;;;;0.00;0.00;;;;;18.63;100.00;101091.94;5118895;27;45354;-77
2023/09/01 00:31:21;;;;;;;;;1.00;1.00;;;;;18.69;100.00;101102.19;5130245;27;45005;-76
2023/09/01 00:33:47;;;;;;;;;3.00;2.00;;;;;18.66;100.00;101096.22;5134039;27;45432;-76
2023/09/01 00:36:12;;;;;;;;;1.00;1.00;;;;;18.67;100.00;101095.25;5122340;27;45229;-77
2023/09/01 00:38:37;;;;;;;;;2.33;1.33;;;;;18.68;100.00;101088.94;5134255;27;45252;-76
2023/09/01 00:41:03;;;;;;;;;0.67;0.33;;;;;18.66;100.00;101098.88;5119215;27;45306;-76
2023/09/01 00:43:28;;;;;;;;;0.00;0.00;;;;;18.60;100.00;101088.66;5108820;27;45448;-76
2023/09/01 00:45:54;;;;;;;;;1.00;1.00;;;;;18.60;100.00;101091.31;5124710;27;45348;-75
2023/09/01 00:48:19;;;;;;;;;1.33;1.33;;;;;18.63;100.00;101097.31;5125127;27;45254;-76
2023/09/01 00:50:50;;;;;;;;;2.33;1.33;;;;;18.61;100.00;101095.72;5121688;27;45398;-76
2023/09/01 00:53:15;;;;;;;;;3.33;1.00;;;;;18.58;100.00;101090.59;5127820;27;45709;-76
2023/09/01 00:55:41;;;;;;;;;2.00;0.67;;;;;18.59;100.00;101095.81;5118160;27;45435;-76
2023/09/01 00:58:06;;;;;;;;;1.00;1.00;;;;;18.50;100.00;101076.91;5142334;27;45357;-78
2023/09/01 01:00:32;;;;;;;;;1.00;1.00;;;;;18.64;100.00;101104.38;5141668;27;47052;-76
2023/09/01 01:03:02;;;;;;;;;2.67;1.00;;;;;18.62;100.00;101092.03;5122580;27;45317;-76
2023/09/01 01:05:34;;;;;;;;;1.00;1.00;;;;;18.63;100.00;101099.97;5113836;27;45603;-76
2023/09/01 01:08:34;;;;;;;;;0.00;0.00;;;;;18.63;100.00;101113.38;5118451;27;45472;-76
2023/09/01 01:11:14;;;;;;;;;1.00;1.00;;;;;18.58;100.00;101088.78;5102590;27;45353;-76
2023/09/01 01:13:46;;;;;;;;;1.00;1.00;;;;;18.57;100.00;101086.19;5117869;27;45240;-76
2023/09/01 01:16:13;;;;;;;;;1.67;1.00;;;;;18.63;100.00;101096.44;5117891;27;45401;-76
2023/09/01 01:18:40;;;;;;;;;2.00;2.00;;;;;18.65;100.00;101094.53;5111319;27;45374;-76
2023/09/01 01:21:10;;;;;;;;;0.67;0.67;;;;;18.60;100.00;101083.28;5129306;27;45896;-76
2023/09/01 01:23:37;;;;;;;;;2.00;1.00;;;;;18.61;100.00;101085.00;5139001;27;45302;-76
2023/09/01 01:26:02;;;;;;;;;1.00;1.00;;;;;18.65;100.00;101081.13;5135161;27;45317;-77
2023/09/01 01:28:28;;;;;;;;;0.00;0.00;;;;;18.66;100.00;101078.31;5124045;27;45282;-77
2023/09/01 01:30:53;;;;;;;;;0.67;0.67;;;;;18.68;100.00;101086.25;5123839;27;45922;-77
2023/09/01 01:33:21;;;;;;;;;1.00;1.00;;;;;18.67;100.00;101072.00;5140001;27;44617;-78
2023/09/01 01:36:08;;;;;;;;;1.00;1.00;;;;;18.68;100.00;101084.41;5143474;27;45002;-77
2023/09/01 01:38:39;;;;;;;;;2.00;2.00;;;;;18.68;100.00;101086.25;5140615;27;44914;-77
2023/09/01 01:41:09;;;;;;;;;2.67;2.00;;;;;18.70;100.00;101085.16;5139580;27;46835;-77
2023/09/01 01:43:39;;;;;;;;;1.00;1.00;;;;;18.63;100.00;101069.66;5135234;27;45294;-76
2023/09/01 01:46:05;;;;;;;;;1.33;0.67;;;;;18.54;100.00;101062.31;5137254;27;44725;-77
2023/09/01 01:48:36;;;;;;;;;1.00;1.00;;;;;18.68;100.00;101089.75;5114069;27;45780;-77
2023/09/01 01:51:05;;;;;;;;;3.00;1.00;;;;;18.61;100.00;101069.78;5121174;27;45195;-78
2023/09/01 01:53:32;;;;;;;;;0.67;0.00;;;;;18.62;100.00;101067.94;5127187;27;44808;-77
2023/09/01 01:55:57;;;;;;;;;2.00;1.00;;;;;18.61;100.00;101069.78;5133564;27;44817;-77
2023/09/01 01:58:22;;;;;;;;;1.00;1.00;;;;;18.57;100.00;101064.78;5143246;27;45757;-77
2023/09/01 02:00:49;;;;;;;;;2.00;2.00;;;;;18.57;100.00;101062.09;5133904;27;45385;-77
2023/09/01 02:03:14;;;;;;;;;1.67;1.67;;;;;18.62;100.00;101068.78;5135612;27;44834;-77
2023/09/01 02:05:40;;;;;;;;;1.00;1.00;;;;;18.58;100.00;101070.03;5124716;27;44738;-77
2023/09/01 02:08:05;;;;;;;;;1.00;1.00;;;;;18.64;100.00;101085.63;5121795;27;44764;-77
2023/09/01 02:10:31;;;;;;;;;1.00;1.00;;;;;18.64;100.00;101087.44;5122227;27;45469;-77
2023/09/01 02:12:56;;;;;;;;;1.00;1.00;;;;;18.64;100.00;101079.41;5131272;27;44752;-77
2023/09/01 02:15:22;;;;;;;;;1.00;1.00;;;;;18.64;100.00;101076.72;5143371;27;44714;-77
2023/09/01 02:17:48;;;;;;;;;4.67;1.00;;;;;18.54;100.00;101065.84;5143698;27;44808;-76
2023/09/01 02:20:19;;;;;;;;;2.33;0.00;;;;;18.47;100.00;101056.53;5142721;27;45296;-77
2023/09/01 02:22:45;;;;;;;;;0.00;0.00;;;;;18.59;100.00;101077.06;5139440;27;45305;-77
2023/09/01 02:25:12;;;;;;;;;3.00;1.00;;;;;18.59;100.00;101077.06;5134545;27;45062;-77
2023/09/01 02:27:42;;;;;;;;;0.33;0.33;;;;;18.59;100.00;101078.88;5141255;27;44798;-77
2023/09/01 02:30:09;;;;;;;;;0.67;0.67;;;;;18.56;100.00;101068.41;5129897;27;45092;-77
2023/09/01 02:32:34;;;;;;;;;2.00;1.00;;;;;18.57;100.00;101070.97;5129284;27;45346;-77
2023/09/01 02:35:00;;;;;;;;;1.00;1.00;;;;;18.53;100.00;101058.78;5132839;27;44808;-77
2023/09/01 02:37:26;;;;;;;;;1.00;1.00;;;;;18.53;100.00;101061.47;5129220;27;45516;-77
2023/09/01 02:39:51;;;;;;;;;2.00;1.00;;;;;18.48;100.00;101046.69;5131677;27;46338;-77
2023/09/01 02:42:17;;;;;;;;;0.00;0.00;;;;;18.51;100.00;101065.25;5142606;27;45314;-77
2023/09/01 02:44:42;;;;;;;;;2.00;2.00;;;;;18.54;100.00;101059.66;5130913;27;44792;-77
2023/09/01 02:47:07;;;;;;;;;0.00;0.00;;;;;18.38;100.00;101038.50;5132465;27;45458;-77
2023/09/01 02:49:33;;;;;;;;;0.33;0.33;;;;;18.47;100.00;101061.91;5136974;27;47256;-77
2023/09/01 02:51:58;;;;;;;;;1.00;1.00;;;;;18.37;100.00;101052.84;5127668;27;45397;-77
2023/09/01 02:54:23;;;;;;;;;1.00;1.00;;;;;18.49;100.00;101077.84;5119774;27;45382;-77
2023/09/01 02:56:49;;;;;;;;;2.00;0.00;;;;;18.45;100.00;101071.88;5122653;27;44803;-77
2023/09/01 02:59:14;;;;;;;;;2.00;1.00;;;;;18.33;100.00;101040.66;5133413;27;47891;-77
2023/09/01 03:01:39;;;;;;;;;3.67;1.00;;;;;18.46;100.00;101070.91;5131167;27;44638;-76
2023/09/01 03:04:07;;;;;;;;;1.00;1.00;;;;;18.47;100.00;101077.97;5146232;27;44886;-77
2023/09/01 03:06:33;;;;;;;;;3.00;0.00;;;;;18.44;100.00;101075.53;5144147;27;45516;-77
2023/09/01 03:08:59;;;;;;;;;0.00;0.00;;;;;18.44;100.00;101075.53;5143764;27;45398;-77
2023/09/01 03:11:24;;;;;;;;;1.00;0.00;;;;;18.31;100.00;101064.03;5132579;27;44751;-77
2023/09/01 03:13:49;;;;;;;;;1.00;1.00;;;;;18.29;100.00;101059.78;5146101;27;44814;-78
2023/09/01 03:16:15;;;;;;;;;0.33;0.33;;;;;18.40;100.00;101075.88;5138071;27;45581;-78
2023/09/01 03:18:40;;;;;;;;;2.00;0.33;;;;;18.37;100.00;101079.63;5146627;27;45243;-77
2023/09/01 03:21:13;;;;;;;;;1.33;1.00;;;;;18.35;100.00;101060.16;5144898;27;45427;-77
2023/09/01 03:23:38;;;;;;;;;3.00;1.67;;;;;18.38;100.00;101069.78;5130986;27;44704;-77
2023/09/01 03:26:05;;;;;;;;;3.00;0.00;;;;;18.39;100.00;101069.66;5125522;27;45495;-77
2023/09/01 03:28:31;;;;;;;;;1.00;1.00;;;;;18.38;100.00;101067.97;5132629;27;48056;-77
2023/09/01 03:30:57;;;;;;;;;1.00;0.00;;;;;18.29;100.00;101049.88;5135626;27;45262;-77
2023/09/01 03:33:22;;;;;;;;;0.00;0.00;;;;;18.35;100.00;101061.97;5123155;27;45274;-76
2023/09/01 03:35:47;;;;;;;;;1.00;0.00;;;;;18.28;100.00;101045.53;5132752;27;45472;-76
2023/09/01 03:38:13;;;;;;;;;1.00;1.00;;;;;18.37;100.00;101079.63;5127094;27;46361;-77
2023/09/01 03:40:38;;;;;;;;;2.00;0.33;;;;;18.27;100.00;101054.50;5122332;27;44720;-78
2023/09/01 03:43:06;;;;;;;;;2.00;0.67;;;;;18.36;100.00;101074.38;5128583;27;44706;-76
2023/09/01 03:45:31;;;;;;;;;2.67;1.00;;;;;18.27;100.00;101046.47;5120594;27;45552;-77
2023/09/01 03:47:57;;;;;;;;;1.00;1.00;;;;;18.28;100.00;101047.34;5136148;27;53167;-78
2023/09/01 03:50:22;;;;;;;;;1.00;1.00;;;;;18.34;100.00;101058.44;5138101;27;50870;-77
2023/09/01 03:52:47;;;;;;;;;1.00;1.00;;;;;18.25;100.00;101040.41;5123559;27;45496;-77
2023/09/01 03:55:13;;;;;;;;;2.00;0.33;;;;;18.26;100.00;101043.94;5126398;27;45521;-77
2023/09/01 03:57:38;;;;;;;;;2.33;1.33;;;;;18.27;100.00;101051.84;5115386;27;46482;-77
2023/09/01 04:00:11;;;;;;;;;1.00;0.67;;;;;18.32;100.00;101056.84;5116680;27;44803;-76
2023/09/01 04:02:37;;;;;;;;;0.00;0.00;;;;;18.28;100.00;101041.97;5120096;27;45437;-78
2023/09/01 04:05:03;;;;;;;;;2.00;2.00;;;;;18.26;100.00;101049.28;5128212;27;46240;-76
2023/09/01 04:07:29;;;;;;;;;0.33;0.33;;;;;18.07;100.00;101015.00;5127591;27;46250;-77
2023/09/01 04:09:54;;;;;;;;;0.00;0.00;;;;;18.26;100.00;101042.09;5131357;27;45373;-77
2023/09/01 04:12:20;;;;;;;;;1.67;1.33;;;;;18.26;100.00;101043.94;5136135;27;44719;-76
2023/09/01 04:14:45;;;;;;;;;1.00;1.00;;;;;18.25;100.00;101044.91;5137366;27;48197;-78
2023/09/01 04:17:10;;;;;;;;;0.33;0.33;;;;;18.09;100.00;101021.97;5112227;27;45459;-78
2023/09/01 04:19:36;;;;;;;;;0.67;0.67;;;;;18.12;100.00;101028.91;5112693;27;45283;-78
2023/09/01 04:22:01;;;;;;;;;0.00;0.00;;;;;18.25;100.00;101044.91;5118854;27;45322;-77
2023/09/01 04:24:26;;;;;;;;;0.33;0.00;;;;;18.12;100.00;101028.91;5131157;27;44788;-77
2023/09/01 04:26:51;;;;;;;;;1.00;1.00;;;;;18.13;100.00;101022.56;5125762;27;45590;-77
2023/09/01 04:29:18;;;;;;;;;2.00;1.00;;;;;18.22;100.00;101037.94;5126754;27;44785;-78
2023/09/01 04:31:43;;;;;;;;;1.00;1.00;;;;;18.11;100.00;101025.38;5142285;27;45216;-77
2023/09/01 04:34:08;;;;;;;;;0.00;0.00;;;;;18.23;100.00;101056.56;5120603;27;45342;-78
2023/09/01 04:36:34;;;;;;;;;2.00;2.00;;;;;18.23;100.00;101051.22;5132151;27;46189;-77
2023/09/01 04:39:01;;;;;;;;;2.33;1.00;;;;;18.19;100.00;101039.00;5120297;27;45289;-77
2023/09/01 04:41:26;;;;;;;;;1.00;1.00;;;;;18.09;100.00;101038.03;5120647;27;45274;-77
2023/09/01 04:43:52;;;;;;;;;1.00;1.00;;;;;18.18;100.00;101047.19;5119494;27;45645;-77
2023/09/01 04:46:17;;;;;;;;;3.00;2.00;;;;;18.18;100.00;101055.22;5119817;27;46674;-78
2023/09/01 04:48:42;;;;;;;;;2.00;1.00;;;;;18.20;100.00;101050.59;5131272;27;45361;-76
2023/09/01 04:51:08;;;;;;;;;1.00;1.00;;;;;18.21;100.00;101044.28;5132011;27;44728;-77
2023/09/01 04:53:33;;;;;;;;;1.67;1.67;;;;;18.16;100.00;101033.88;5113137;27;45362;-77
2023/09/01 04:55:59;;;;;;;;;1.00;0.00;;;;;18.12;100.00;101037.78;5115860;27;45820;-76
2023/09/01 04:58:24;;;;;;;;;1.00;1.00;;;;;18.19;100.00;101051.56;5129043;27;44778;-76
2023/09/01 05:00:51;;;;;;;;;1.00;1.00;;;;;18.23;100.00;101055.72;5128947;27;45401;-77
2023/09/01 05:03:16;;;;;;;;;1.00;1.00;;;;;18.25;100.00;101051.09;5122563;27;45357;-78
2023/09/01 05:05:42;;;;;;;;;2.33;1.00;;;;;18.26;100.00;101060.00;5127708;27;45367;-77
2023/09/01 05:08:07;;;;;;;;;1.00;1.00;;;;;18.26;100.00;101055.47;5121974;27;44684;-78
2023/09/01 05:10:32;;;;;;;;;2.33;1.00;;;;;18.20;100.00;101046.09;5117236;27;45410;-78
2023/09/01 05:12:58;;;;;;;;;1.67;1.67;;;;;18.30;100.00;101048.94;5132050;27;45216;-77
2023/09/01 05:15:23;;;;;;;;;1.67;1.67;;;;;18.18;100.00;101040.00;5130747;27;45385;-78
2023/09/01 05:17:48;;;;;;;;;1.00;1.00;;;;;18.30;100.00;101045.38;5135373;27;45235;-78
2023/09/01 05:20:14;;;;;;;;;1.00;1.00;;;;;18.33;100.00;101061.22;5129236;27;45280;-78
2023/09/01 05:22:39;;;;;;;;;0.67;0.67;;;;;18.32;100.00;101056.84;5137711;27;44895;-78
2023/09/01 05:25:05;;;;;;;;;1.00;1.00;;;;;18.34;100.00;101060.25;5120983;27;45239;-78
2023/09/01 05:27:31;;;;;;;;;1.00;1.00;;;;;18.33;100.00;101050.50;5124973;27;45348;-78
2023/09/01 05:29:56;;;;;;;;;2.00;1.00;;;;;18.34;100.00;101046.88;5137749;27;45244;-78
2023/09/01 05:32:22;;;;;;;;;2.00;0.33;;;;;18.32;100.00;101041.66;5138776;27;45014;-77
2023/09/01 05:34:48;;;;;;;;;1.00;1.00;;;;;18.35;100.00;101036.06;5133339;27;45519;-78
2023/09/01 05:37:13;;;;;;;;;2.00;1.00;;;;;18.43;100.00;101054.19;5137701;27;45496;-78
2023/09/01 05:39:42;;;;;;;;;1.33;1.33;;;;;18.36;100.00;101045.78;5128591;27;45280;-77
2023/09/01 05:42:09;;;;;;;;;0.00;0.00;;;;;18.46;100.00;101060.19;5123405;27;45193;-77
2023/09/01 05:44:35;;;;;;;;;1.00;1.00;;;;;18.41;100.00;101050.81;5130666;27;46305;-78
2023/09/01 05:47:05;;;;;;;;;1.00;1.00;;;;;18.44;100.00;101053.25;5126610;27;44979;-77
2023/09/01 05:49:34;;;;;;;;;2.33;1.00;;;;;18.47;100.00;101064.59;5133683;27;45357;-77
2023/09/01 05:52:00;;;;;;;;;2.00;1.00;;;;;18.47;100.00;101061.03;5119293;27;45936;-78
2023/09/01 05:54:25;;;;;;;;;0.67;0.67;;;;;18.50;100.00;101069.72;5140306;27;46614;-77
2023/09/01 05:56:51;;;;;;;;;2.00;1.00;;;;;18.43;100.00;101062.25;5130710;27;45282;-77
2023/09/01 05:59:16;;;;;;;;;1.00;0.00;;;;;18.48;100.00;101068.13;5109819;27;45282;-78
2023/09/01 06:01:42;;;;;;;;;0.33;0.33;;;;;18.51;100.00;101078.63;5118365;27;45713;-80
2023/09/01 06:04:07;;;;;;;;;1.00;1.00;;;;;18.57;100.00;101083.53;5118441;27;45219;-80
2023/09/01 06:06:34;;;;;;;;;1.33;1.00;;;;;18.57;100.00;101086.19;5129019;27;45332;-79
2023/09/01 06:08:59;;;;;;;;;0.00;0.00;;;;;18.47;100.00;101083.34;5129887;27;45380;-80
2023/09/01 06:11:25;;;;;;;;;1.00;1.00;;;;;18.53;100.00;101096.28;5123802;27;45602;-79
2023/09/01 06:13:51;;;;;;;;;1.00;1.00;;;;;18.47;100.00;101080.66;5135736;27;46416;-78
2023/09/01 06:16:16;;;;;;;;;2.00;0.00;;;;;18.58;100.00;101104.00;5117265;27;45295;-79
2023/09/01 06:18:42;;;;;;;;;0.00;0.00;;;;;18.59;100.00;101106.53;5121113;27;45460;-79
2023/09/01 06:21:10;;;;;;;;;2.67;0.33;;;;;18.56;100.00;101103.22;5121479;27;45541;-79
2023/09/01 06:23:35;;;;;;;;;1.00;1.00;;;;;18.49;100.00;101080.53;5106849;27;45578;-78
2023/09/01 06:26:01;;;;;;;;;2.33;1.00;;;;;18.68;100.00;101107.69;5117770;27;45854;-79
2023/09/01 06:28:26;;;;;;;;;1.00;1.00;;;;;18.63;100.00;101099.13;5115366;27;45304;-78
2023/09/01 06:30:52;;;;;;;;;0.00;0.00;;;;;18.63;100.00;101089.28;5107739;27;45465;-78
2023/09/01 06:33:17;;;;;;;;;2.00;1.00;;;;;18.83;100.00;101106.50;5125726;27;47185;-78
2023/09/01 06:35:43;;;;;;;;;0.00;0.00;;;;;18.84;100.00;101097.50;5123024;27;45432;-78
2023/09/01 06:38:08;;;;;;;;;1.67;1.00;;;;;18.87;100.00;101107.97;5131820;27;44779;-78
2023/09/01 06:40:34;;;;;;;;;0.00;0.00;;;;;18.84;100.00;101084.09;5125055;27;45326;-77
2023/09/01 06:42:59;;;;;;;;;0.00;0.00;;;;;18.95;100.00;101113.59;5124015;27;45332;-78
2023/09/01 06:45:25;;;;;;;;;1.00;1.00;;;;;18.88;100.00;101095.44;5118394;27;45291;-78
2023/09/01 06:47:55;;;;;;;;;1.33;0.33;;;;;18.96;100.00;101099.22;5123950;27;48156;-78
2023/09/01 06:50:21;;;;;;;;;0.67;0.67;;;;;18.87;100.00;101093.72;5117981;27;45566;-78
2023/09/01 06:52:46;;;;;;;;;1.33;1.00;;;;;18.93;100.00;101103.97;5116380;27;46136;-79
2023/09/01 06:55:12;;;;;;;;;0.00;0.00;;;;;18.93;100.00;101090.56;5125079;27;44858;-78
2023/09/01 06:57:38;;;;;;;;;0.00;0.00;;;;;19.01;100.00;101096.19;5130048;27;45377;-78
2023/09/01 07:00:04;;;;;;;;;0.00;0.00;;;;;19.07;100.00;101103.75;5112743;27;44797;-78
2023/09/01 07:02:29;;;;;;;;;2.00;1.00;;;;;19.12;100.00;101112.28;5120589;27;45587;-78
2023/09/01 07:04:55;;;;;;;;;0.00;0.00;;;;;19.06;100.00;101100.22;5125245;27;54998;-78
2023/09/01 07:07:21;;;;;;;;;0.67;0.67;;;;;19.15;100.00;101109.38;5117107;27;45430;-79
2023/09/01 07:09:46;;;;;;;;;1.00;1.00;;;;;19.21;100.00;101114.25;5119415;27;45469;-79
2023/09/01 07:12:12;;;;;;;;;0.00;0.00;;;;;19.19;100.00;101102.78;5118651;27;46132;-78
2023/09/01 07:14:37;;;;;;;;;0.00;0.00;;;;;19.26;100.00;101117.44;5113383;27;44814;-78
2023/09/01 07:17:03;;;;;;;;;2.00;1.00;;;;;19.17;100.00;101099.41;5113971;27;44795;-77
2023/09/01 07:19:28;;;;;;;;;0.00;0.00;;;;;19.19;100.00;101106.34;5122939;27;45299;-79
2023/09/01 07:21:53;;;;;;;;;0.00;0.00;;;;;19.04;100.00;101101.31;5104995;27;52277;-80
2023/09/01 07:24:19;;;;;;;;;0.33;0.33;;;;;19.17;100.00;101112.81;5106342;27;45354;-78
2023/09/01 07:26:44;;;;;;;;;0.00;0.00;;;;;19.23;100.00;101123.91;5114305;27;45303;-77
2023/09/01 07:29:09;;;;;;;;;2.00;1.00;;;;;19.27;100.00;101131.72;5108401;27;45271;-79
2023/09/01 07:31:35;;;;;;;;;0.00;0.00;;;;;19.17;100.00;101118.16;5115696;27;47913;-79
2023/09/01 07:34:00;;;;;;;;;0.00;0.00;;;;;19.24;100.00;101122.91;5109864;27;45361;-78
2023/09/01 07:36:25;;;;;;;;;2.00;1.00;;;;;19.20;100.00;101117.94;5103034;27;45452;-78
2023/09/01 07:38:51;;;;;;;;;0.00;0.00;;;;;19.22;100.00;101126.69;5120846;27;45333;-79
2023/09/01 07:41:16;;;;;;;;;1.00;1.00;;;;;19.25;100.00;101127.31;5108803;27;46887;-79
2023/09/01 07:43:42;;;;;;;;;0.00;0.00;;;;;18.99;100.00;101090.94;5101389;27;45248;-79
2023/09/01 07:46:08;;;;;;;;;0.00;0.00;;;;;19.19;100.00;101119.75;5111347;27;45573;-79
2023/09/01 07:48:33;;;;;;;;;0.00;0.00;;;;;19.19;100.00;101118.88;5119746;27;46148;-78
2023/09/01 07:50:58;;;;;;;;;0.67;0.00;;;;;19.27;100.00;101121.84;5110991;27;46520;-79
2023/09/01 07:53:24;;;;;;;;;0.00;0.00;;;;;19.19;100.00;101100.97;5107065;27;45353;-78
2023/09/01 07:55:49;;;;;;;;;0.00;0.00;;;;;19.35;100.00;101122.06;5119544;27;45488;-79
2023/09/01 07:58:15;;;;;;;;;2.00;0.00;;;;;19.39;100.00;101128.06;5110822;27;45667;-77
2023/09/01 08:00:40;;;;;;;;;1.00;0.00;;;;;19.46;100.00;101126.63;5103076;27;45421;-77
2023/09/01 08:03:10;;;;;;;;;1.33;0.00;;;;;19.15;100.00;101067.31;5102751;27;45456;-77
2023/09/01 08:05:36;;;;;;;;;1.00;1.00;;;;;19.41;100.00;101099.31;5111638;27;45294;-77
2023/09/01 08:08:02;;;;;;;;;0.00;0.00;;;;;19.71;100.00;101127.25;5123054;27;45580;-76
2023/09/01 08:10:28;;;;;;;;;0.00;0.00;;;;;19.79;100.00;101126.63;5115409;27;45555;-76
2023/09/01 08:12:53;;;;;;;;;0.00;0.00;;;;;19.84;100.00;101137.84;5118395;27;45421;-76
2023/09/01 08:15:18;;;;;;;;;0.00;0.00;;;;;19.73;100.00;101098.44;5109739;27;47637;-76
2023/09/01 08:17:44;;;;;;;;;0.00;0.00;;;;;19.91;100.00;101111.34;5118464;27;45379;-76
2023/09/01 08:20:09;;;;;;;;;1.00;1.00;;;;;20.05;100.00;101125.38;5098891;27;47768;-76
2023/09/01 08:22:35;;;;;;;;;0.00;0.00;;;;;20.14;100.00;101118.41;5109261;27;45520;-76
2023/09/01 08:25:01;;;;;;;;;0.67;0.67;;;;;20.21;100.00;101123.16;5111058;27;45481;-76
2023/09/01 08:27:27;;;;;;;;;0.00;0.00;;;;;20.26;100.00;101134.38;5101253;27;45361;-77
2023/09/01 08:29:53;;;;;;;;;0.00;0.00;;;;;20.15;100.00;101120.97;5109257;27;46360;-76
2023/09/01 08:32:19;;;;;;;;;0.00;0.00;;;;;20.22;100.00;101127.53;5107509;27;45294;-77
2023/09/01 08:34:46;;;;;;;;;3.00;0.00;;;;;20.34;100.00;101139.13;5121207;27;45669;-77
2023/09/01 08:37:12;;;;;;;;;1.67;1.00;;;;;20.40;100.00;101132.41;5120612;27;45299;-76
2023/09/01 08:39:37;;;;;;;;;0.00;0.00;;;;;20.48;100.00;101117.38;5119058;27;45385;-76
2023/09/01 08:42:03;;;;;;;;;2.67;0.67;;;;;20.73;100.00;101133.13;5102202;27;45225;-77
2023/09/01 08:44:29;;;;;;;;;0.00;0.00;;;;;20.84;100.00;101129.53;5104522;27;45370;-76
2023/09/01 08:46:57;;;;;;;;;0.00;0.00;;;;;20.85;100.00;101122.28;5113272;27;45362;-77
2023/09/01 08:49:26;;;;;;;;;0.00;0.00;;;;;21.05;100.00;101146.53;5117441;27;45426;-77
2023/09/01 08:51:53;;;;;;;;;2.00;0.00;;;;;21.14;100.00;101135.00;5113522;27;45310;-78
2023/09/01 08:54:19;;;;;;;;;0.00;0.00;;;;;21.26;100.00;101123.19;5118245;27;47059;-77
2023/09/01 08:56:44;;;;;;;;;2.00;1.00;;;;;21.45;100.00;101145.81;5122366;27;45366;-77
2023/09/01 08:59:10;;;;;;;;;0.00;0.00;;;;;21.45;100.00;101143.13;5105962;27;45412;-77
2023/09/01 09:01:37;;;;;;;;;1.33;1.00;;;;;21.54;100.00;101145.00;5112005;27;45287;-78
2023/09/01 09:04:03;;;;;;;;;0.00;0.00;;;;;21.61;100.00;101147.03;5117385;27;45409;-78
2023/09/01 09:06:34;;;;;;;;;2.00;0.00;;;;;21.56;100.00;101133.09;5122851;27;45285;-78
2023/09/01 09:09:14;;;;;;;;;0.00;0.00;;;;;21.56;100.00;101151.94;5127869;27;45514;-78
2023/09/01 09:11:53;;;;;;;;;1.00;1.00;;;;;21.48;100.00;101142.84;5111448;27;45279;-78
2023/09/01 09:14:18;;;;;;;;;2.00;0.00;;;;;21.57;100.00;101142.03;5111829;27;45477;-78
2023/09/01 09:16:54;;;;;;;;;0.00;0.00;;;;;21.51;100.00;101142.56;5131099;27;45412;-79
2023/09/01 09:19:20;;;;;;;;;1.33;0.00;;;;;21.61;100.00;101146.16;5114492;27;45452;-79
2023/09/01 09:21:46;;;;;;;;;0.33;0.00;;;;;21.59;100.00;101132.00;5124076;27;45435;-78
2023/09/01 09:24:11;;;;;;;;;0.00;0.00;;;;;21.69;100.00;101146.38;5125562;27;45470;-79
2023/09/01 09:26:37;;;;;;;;;0.00;0.00;;;;;21.83;100.00;101152.22;5131846;27;45351;-79
2023/09/01 09:29:10;;;;;;;;;0.33;0.33;;;;;21.93;100.00;101143.34;5130372;27;45375;-79
2023/09/01 09:31:44;;;;;;;;;0.00;0.00;;;;;22.06;100.00;101146.66;5126155;27;45382;-79
2023/09/01 09:34:25;;;;;;;;;0.67;0.00;;;;;22.16;100.00;101145.69;5116759;27;45455;-80
2023/09/01 09:36:50;;;;;;;;;1.00;0.00;;;;;22.05;100.00;101132.34;5118279;27;45506;-79
2023/09/01 09:39:26;;;;;;;;;1.00;0.67;;;;;22.34;100.00;101151.28;5125317;27;45936;-79
2023/09/01 09:41:52;;;;;;;;;1.00;1.00;;;;;22.40;100.00;101156.09;5127608;27;45204;-78
2023/09/01 09:44:33;;;;;;;;;0.00;0.00;;;;;22.53;100.00;101139.66;5128200;27;45288;-79
2023/09/01 09:47:00;;;;;;;;;2.00;0.00;;;;;22.64;99.59;101139.53;5130801;27;45315;-79
2023/09/01 09:49:27;;;;;;;;;0.00;0.00;;;;;22.93;100.00;101163.81;5127423;27;45615;-79
2023/09/01 09:51:53;;;;;;;;;1.00;1.00;;;;;23.06;98.88;101158.97;5116752;27;46099;-79
2023/09/01 09:54:23;;;;;;;;;0.00;0.00;;;;;23.03;100.00;101153.88;5134097;27;45312;-79
2023/09/01 09:56:51;;;;;;;;;0.00;0.00;;;;;23.06;95.71;101162.53;5144640;27;45303;-80
2023/09/01 09:59:33;;;;;;;;;0.67;0.00;;;;;22.89;98.35;101144.38;5127876;27;47142;-80
2023/09/01 10:02:04;;;;;;;;;1.67;0.33;;;;;22.92;99.36;101170.19;5125795;27;45472;-80
2023/09/01 10:04:32;;;;;;;;;1.00;1.00;;;;;22.80;99.71;101164.97;5111573;27;45260;-79
2023/09/01 10:06:58;;;;;;;;;0.00;0.00;;;;;22.71;91.97;101152.31;5122177;27;45477;-79
2023/09/01 10:09:23;;;;;;;;;0.67;0.00;;;;;22.77;99.03;101164.41;5128819;27;45258;-79
2023/09/01 10:11:49;;;;;;;;;1.67;1.00;;;;;22.63;100.00;101152.16;5132124;27;44677;-79
2023/09/01 10:14:16;;;;;;;;;0.67;0.33;;;;;22.74;100.00;101156.59;5126619;27;45314;-79
2023/09/01 10:16:42;;;;;;;;;1.67;0.33;;;;;22.58;97.73;101146.31;5131651;27;45241;-79
2023/09/01 10:19:11;;;;;;;;;0.00;0.00;;;;;22.70;99.46;101155.16;5136490;27;45314;-79
2023/09/01 10:21:37;;;;;;;;;1.00;1.00;;;;;22.67;99.44;101144.66;5120050;27;44879;-79
2023/09/01 10:24:02;;;;;;;;;0.67;0.67;;;;;22.75;95.86;101142.94;5136065;27;45367;-79
2023/09/01 10:26:28;;;;;;;;;1.33;0.33;;;;;22.78;95.59;101153.44;5131896;27;44755;-79
2023/09/01 10:29:01;;;;;;;;;0.00;0.00;;;;;22.72;95.34;101148.63;5128138;27;45352;-78
2023/09/01 10:31:39;;;;;;;;;1.00;1.00;;;;;22.60;97.55;101141.66;5128913;27;45385;-81
2023/09/01 10:34:05;;;;;;;;;0.00;0.00;;;;;22.51;92.07;101147.03;5118834;27;45739;-79
2023/09/01 10:36:31;;;;;;;;;0.00;0.00;;;;;22.44;91.28;101143.19;5113462;27;45488;-79
2023/09/01 10:39:22;;;;;;;;;0.33;0.33;;;;;22.45;94.11;101161.06;5110406;27;45989;-79
2023/09/01 10:41:53;;;;;;;;;0.00;0.00;;;;;22.41;98.03;101165.03;5110879;27;45516;-78
2023/09/01 10:44:21;;;;;;;;;0.00;0.00;;;;;22.30;92.65;101144.44;5104971;27;45432;-79
2023/09/01 10:46:46;;;;;;;;;1.00;1.00;;;;;22.52;99.34;101162.19;5113521;27;45387;-79
2023/09/01 10:49:12;;;;;;;;;0.00;0.00;;;;;22.68;99.01;101160.69;5117058;27;45507;-79
2023/09/01 10:51:37;;;;;;;;;0.00;0.00;;;;;22.87;94.18;101157.16;5111875;27;45532;-79
2023/09/01 10:54:15;;;;;;;;;0.00;0.00;;;;;23.15;94.05;101158.13;5115611;27;45422;-78
2023/09/01 10:57:01;;;;;;;;;0.67;0.67;;;;;23.18;86.06;101138.94;5110047;27;45554;-78
2023/09/01 10:59:31;;;;;;;;;0.00;0.00;;;;;23.19;81.47;101136.09;5116272;27;46267;-79
2023/09/01 11:02:16;;;;;;;;;0.00;0.00;;;;;23.35;86.55;101157.94;5107932;27;46076;-79
2023/09/01 11:04:41;;;;;;;;;0.00;0.00;;;;;23.50;84.18;101146.69;5123600;27;45368;-78
2023/09/01 11:07:07;;;;;;;;;0.00;0.00;;;;;23.74;87.32;101157.84;5118367;27;45327;-78
2023/09/01 11:09:33;;;;;;;;;1.33;0.00;;;;;23.89;80.79;101160.94;5107968;27;45381;-78
2023/09/01 11:12:01;;;;;;;;;0.00;0.00;;;;;24.01;79.84;101168.69;5109329;27;45459;-78
2023/09/01 11:14:26;;;;;;;;;0.00;0.00;;;;;24.18;81.87;101154.38;5105979;27;45509;-78
2023/09/01 11:16:51;;;;;;;;;0.00;0.00;;;;;24.36;84.91;101151.72;5107467;27;47073;-78
2023/09/01 11:19:17;;;;;;;;;0.33;0.33;;;;;24.42;79.77;101144.84;5116107;27;45331;-78